Time;durP1;ratioP1;P1;durP2;ratioP2;P2;SDS_P1;SDS_P2;PMS_P1;PMS_P2;Temp;Humidity;BMP_temperature;BMP_pressure;BME280_temperature;BME280_humidity;BME280_pressure;Samples;Min_cycle;Max_cycle;Signal;HPM_P1;HPM_P2
2023/10/24 00:00:21;;;;;;;24.35;11.80;;;;;;;10.67;100.00;100191.31;5069964;28;20032;-88
2023/10/24 00:02:47;;;;;;;20.70;10.02;;;;;;;10.70;100.00;100198.91;5065618;28;20126;-88
2023/10/24 00:05:12;;;;;;;27.75;12.18;;;;;;;10.61;100.00;100178.91;5068223;28;20025;-87
2023/10/24 00:07:37;;;;;;;23.08;11.32;;;;;;;10.69;100.00;100174.94;5081435;28;20035;-88
2023/10/24 00:10:03;;;;;;;21.65;10.45;;;;;;;10.72;100.00;100182.53;5071657;28;20369;-88
2023/10/24 00:12:31;;;;;;;19.40;9.73;;;;;;;10.74;100.00;100185.72;5064927;28;20036;-88
2023/10/24 00:14:57;;;;;;;20.05;9.40;;;;;;;10.71;100.00;100183.75;5068195;28;20024;-89
2023/10/24 00:17:23;;;;;;;18.80;10.05;;;;;;;10.66;100.00;100169.31;5073543;28;20032;-88
2023/10/24 00:19:49;;;;;;;16.88;8.35;;;;;;;10.70;100.00;100164.53;5072532;28;20459;-88
2023/10/24 00:22:14;;;;;;;13.70;6.93;;;;;;;10.75;100.00;100156.56;5067138;28;20108;-89
2023/10/24 00:24:40;;;;;;;16.83;7.65;;;;;;;10.69;100.00;100135.75;5087802;28;20165;-89
2023/10/24 00:27:05;;;;;;;14.82;6.70;;;;;;;10.75;100.00;100145.34;5071107;28;20065;-89
2023/10/24 00:29:31;;;;;;;13.75;7.72;;;;;;;10.77;100.00;100158.94;5066405;28;20036;-89
2023/10/24 00:31:56;;;;;;;15.80;7.93;;;;;;;10.75;100.00;100164.94;5071187;28;20032;-90
2023/10/24 00:34:22;;;;;;;15.90;8.15;;;;;;;10.69;100.00;100158.13;5074170;28;20047;-89
2023/10/24 00:36:47;;;;;;;14.88;8.48;;;;;;;10.83;100.00;100176.94;5072003;28;20481;-89
2023/10/24 00:39:12;;;;;;;21.05;9.70;;;;;;;10.83;100.00;100164.97;5071548;28;20485;-89
2023/10/24 00:41:38;;;;;;;14.95;7.47;;;;;;;10.81;100.00;100161.75;5087817;28;20040;-89
2023/10/24 00:44:06;;;;;;;17.27;7.72;;;;;;;10.85;100.00;100156.97;5065557;28;20405;-91
2023/10/24 00:46:34;;;;;;;14.18;8.68;;;;;;;10.87;100.00;100154.56;5070234;28;20067;-89
2023/10/24 00:48:59;;;;;;;14.57;7.88;;;;;;;10.88;100.00;100148.56;5070663;28;20035;-88
2023/10/24 00:51:25;;;;;;;13.65;7.97;;;;;;;10.73;100.00;100130.97;5066033;28;20032;-88
2023/10/24 00:53:51;;;;;;;14.00;7.43;;;;;;;10.83;100.00;100136.97;5072118;28;20024;-89
2023/10/24 00:56:17;;;;;;;22.13;8.48;;;;;;;10.84;100.00;100147.78;5055940;28;20412;-89
2023/10/24 00:58:44;;;;;;;15.90;8.00;;;;;;;10.79;100.00;100139.75;5071403;28;20026;-88
2023/10/24 01:01:12;;;;;;;13.38;7.57;;;;;;;10.91;100.00;100138.56;5084857;28;20177;-89
2023/10/24 01:03:38;;;;;;;14.70;7.65;;;;;;;10.87;100.00;100130.16;5063546;28;20066;-89
2023/10/24 01:06:06;;;;;;;12.82;7.75;;;;;;;10.91;100.00;100135.78;5068447;28;20035;-88
2023/10/24 01:08:32;;;;;;;13.23;7.22;;;;;;;10.82;100.00;100121.38;5057682;28;20033;-89
2023/10/24 01:10:57;;;;;;;14.98;8.25;;;;;;;10.84;100.00;100116.19;5069197;28;20029;-89
2023/10/24 01:13:23;;;;;;;11.95;7.38;;;;;;;10.88;100.00;100120.56;5065805;28;20020;-88
2023/10/24 01:15:48;;;;;;;16.02;8.30;;;;;;;10.85;100.00;100109.38;5068670;28;20093;-88
2023/10/24 01:18:14;;;;;;;17.13;7.95;;;;;;;10.83;100.00;100114.56;5070325;28;20151;-89
2023/10/24 01:20:39;;;;;;;14.82;8.23;;;;;;;10.80;100.00;100096.56;5063116;28;20132;-88
2023/10/24 01:23:14;;;;;;;15.65;7.97;;;;;;;10.94;100.00;100106.97;5066541;28;20398;-89
2023/10/24 01:25:41;;;;;;;15.13;8.32;;;;;;;10.93;100.00;100111.78;5068070;28;20029;-88
2023/10/24 01:28:07;;;;;;;14.63;8.88;;;;;;;10.88;100.00;100091.75;5066095;28;20028;-89
2023/10/24 01:30:34;;;;;;;11.88;7.30;;;;;;;10.87;100.00;100087.38;5064017;28;20033;-89
2023/10/24 01:33:00;;;;;;;19.40;8.68;;;;;;;10.86;100.00;100083.78;5058624;28;20025;-89
2023/10/24 01:35:25;;;;;;;13.60;6.93;;;;;;;10.87;100.00;100085.38;5067195;28;20087;-89
2023/10/24 01:37:50;;;;;;;13.20;7.70;;;;;;;10.92;100.00;100086.97;5069204;28;20017;-89
2023/10/24 01:40:16;;;;;;;18.65;8.30;;;;;;;10.92;100.00;100087.78;5065188;28;20127;-89
2023/10/24 01:42:41;;;;;;;18.33;8.57;;;;;;;10.76;100.00;100074.16;5062239;28;20047;-88
2023/10/24 01:45:07;;;;;;;13.82;7.43;;;;;;;10.84;100.00;100079.78;5064963;28;20045;-89
2023/10/24 01:47:33;;;;;;;14.63;9.48;;;;;;;10.90;100.00;100080.97;5069568;28;20028;-89
2023/10/24 01:49:59;;;;;;;13.82;8.43;;;;;;;10.95;100.00;100086.19;5069682;28;20032;-88
2023/10/24 01:52:24;;;;;;;16.88;8.75;;;;;;;10.96;100.00;100090.56;5069464;28;20029;-88
2023/10/24 01:54:50;;;;;;;18.00;8.50;;;;;;;10.91;100.00;100068.56;5068955;28;20154;-89
2023/10/24 01:57:16;;;;;;;16.95;8.18;;;;;;;10.90;100.00;100070.59;5068895;28;20055;-89
2023/10/24 01:59:42;;;;;;;13.38;7.93;;;;;;;10.94;100.00;100062.16;5066947;28;20105;-89
2023/10/24 02:02:07;;;;;;;18.95;9.27;;;;;;;11.05;100.00;100079.78;5060434;28;20056;-89
2023/10/24 02:04:33;;;;;;;15.75;8.35;;;;;;;11.00;100.00;100066.16;5065369;28;20383;-89
2023/10/24 02:06:58;;;;;;;15.35;8.07;;;;;;;10.94;100.00;100056.56;5068828;28;20027;-90
2023/10/24 02:09:24;;;;;;;12.13;7.80;;;;;;;10.96;100.00;100054.97;5060234;28;20028;-89
2023/10/24 02:11:49;;;;;;;12.95;8.02;;;;;;;11.02;100.00;100063.75;5064141;28;20524;-89
2023/10/24 02:14:14;;;;;;;13.05;8.32;;;;;;;10.91;100.00;100049.78;5067451;28;20630;-89
2023/10/24 02:16:40;;;;;;;13.57;7.97;;;;;;;11.05;100.00;100057.38;5069909;28;20036;-89
2023/10/24 02:19:05;;;;;;;13.00;7.63;;;;;;;11.07;100.00;100056.94;5065872;28;20462;-88
2023/10/24 02:21:30;;;;;;;11.90;7.68;;;;;;;11.10;100.00;100044.97;5062237;28;20032;-89
2023/10/24 02:23:57;;;;;;;12.23;8.93;;;;;;;11.02;100.00;100034.97;5065823;28;20095;-89
2023/10/24 02:26:22;;;;;;;12.50;8.07;;;;;;;11.06;100.00;100042.16;5065453;28;20051;-90
2023/10/24 02:28:47;;;;;;;15.35;9.90;;;;;;;11.02;100.00;100024.56;5061979;28;20391;-89
2023/10/24 02:31:14;;;;;;;14.00;8.88;;;;;;;11.09;100.00;100046.97;5049121;28;20029;-88
2023/10/24 02:33:40;;;;;;;12.60;7.78;;;;;;;11.13;100.00;100036.56;5067980;28;20545;-88
2023/10/24 02:36:09;;;;;;;10.60;7.93;;;;;;;11.08;100.00;100028.56;5065448;28;20029;-88
2023/10/24 02:38:35;;;;;;;11.77;9.20;;;;;;;11.12;100.00;100028.56;5065928;28;20020;-89
2023/10/24 02:41:00;;;;;;;15.82;8.77;;;;;;;11.15;100.00;100030.53;5057041;28;20390;-88
2023/10/24 02:43:26;;;;;;;12.52;8.85;;;;;;;11.04;100.00;100010.16;5066687;28;20107;-88
2023/10/24 02:45:52;;;;;;;11.95;8.40;;;;;;;11.14;100.00;100032.56;5065606;28;20021;-88
2023/10/24 02:48:17;;;;;;;13.82;7.97;;;;;;;11.10;100.00;100020.56;5064890;28;20031;-89
2023/10/24 02:50:43;;;;;;;11.93;8.90;;;;;;;11.10;100.00;100023.34;5060380;28;20067;-89
2023/10/24 02:53:09;;;;;;;15.30;8.90;;;;;;;11.12;100.00;100029.34;5064330;28;20090;-89
2023/10/24 02:55:35;;;;;;;13.30;9.13;;;;;;;11.01;100.00;100008.19;5068680;28;20043;-88
2023/10/24 02:58:00;;;;;;;14.40;9.77;;;;;;;11.20;100.00;100024.53;5067339;28;20390;-89
2023/10/24 03:00:25;;;;;;;15.27;9.70;;;;;;;11.23;100.00;100034.13;5068026;28;20025;-89
2023/10/24 03:02:51;;;;;;;14.75;10.20;;;;;;;11.19;100.00;100020.97;5070826;28;20028;-89
2023/10/24 03:05:16;;;;;;;15.02;10.75;;;;;;;11.13;100.00;99999.34;5068873;28;20039;-90
2023/10/24 03:07:41;;;;;;;19.13;12.30;;;;;;;11.09;100.00;99985.34;5070059;28;20554;-89
2023/10/24 03:10:07;;;;;;;15.57;12.27;;;;;;;11.14;100.00;99998.16;5070576;28;20585;-90
2023/10/24 03:12:33;;;;;;;19.25;12.65;;;;;;;11.25;100.00;100017.72;5088714;28;20032;-89
2023/10/24 03:14:58;;;;;;;15.48;11.70;;;;;;;11.18;100.00;100012.94;5067961;28;20028;-89
2023/10/24 03:17:24;;;;;;;18.83;13.40;;;;;;;11.18;100.00;100013.75;5069052;28;20470;-89
2023/10/24 03:19:49;;;;;;;17.13;11.55;;;;;;;11.12;100.00;99995.75;5071650;28;20017;-89
2023/10/24 03:22:15;;;;;;;15.60;11.88;;;;;;;11.13;100.00;100002.97;5060641;28;20032;-89
2023/10/24 03:24:41;;;;;;;16.83;11.82;;;;;;;11.22;100.00;100018.53;5067352;28;20031;-89
2023/10/24 03:27:11;;;;;;;18.05;11.55;;;;;;;11.20;100.00;100024.53;5064821;28;20052;-89
2023/10/24 03:29:37;;;;;;;18.73;12.57;;;;;;;11.26;100.00;100033.31;5073368;28;20032;-90
2023/10/24 03:32:03;;;;;;;16.55;12.07;;;;;;;11.22;100.00;100032.56;5074072;28;20024;-90
2023/10/24 03:34:29;;;;;;;16.90;11.40;;;;;;;11.20;100.00;100032.94;5070726;28;20024;-88
2023/10/24 03:36:54;;;;;;;19.33;12.00;;;;;;;11.30;100.00;100034.13;5089290;28;20035;-89
2023/10/24 03:39:20;;;;;;;15.52;11.77;;;;;;;11.19;100.00;100020.97;5065291;28;20020;-89
2023/10/24 03:41:45;;;;;;;20.13;13.32;;;;;;;11.28;100.00;100042.13;5070223;28;20038;-89
2023/10/24 03:44:10;;;;;;;21.02;12.00;;;;;;;11.24;100.00;100030.16;5068826;28;20033;-89
2023/10/24 03:46:36;;;;;;;18.58;12.70;;;;;;;11.23;100.00;100034.13;5072796;28;20039;-89
2023/10/24 03:49:02;;;;;;;18.00;12.32;;;;;;;11.23;100.00;100029.31;5073258;28;20101;-89
2023/10/24 03:51:27;;;;;;;17.85;13.38;;;;;;;11.22;100.00;100038.16;5074574;28;20029;-90
2023/10/24 03:53:53;;;;;;;20.13;12.70;;;;;;;11.25;100.00;100040.94;5071520;28;20024;-90
2023/10/24 03:56:18;;;;;;;17.05;12.95;;;;;;;11.11;100.00;100019.38;5062633;28;20497;-92
2023/10/24 03:58:44;;;;;;;19.50;12.05;;;;;;;11.18;100.00;100021.34;5071482;28;20016;-92
2023/10/24 04:01:09;;;;;;;17.05;11.82;;;;;;;11.11;100.00;100016.56;5074493;28;20390;-92
2023/10/24 04:03:35;;;;;;;19.63;11.75;;;;;;;11.17;100.00;100028.97;5061131;28;20123;-91
2023/10/24 04:06:00;;;;;;;17.13;12.05;;;;;;;11.24;100.00;100036.53;5056503;28;20029;-91
2023/10/24 04:08:26;;;;;;;18.52;12.00;;;;;;;11.12;100.00;100023.75;5070918;28;20024;-91
2023/10/24 04:10:51;;;;;;;16.40;11.25;;;;;;;11.04;100.00;100008.16;5066642;28;20337;-90
2023/10/24 04:13:16;;;;;;;15.48;10.68;;;;;;;11.11;100.00;100024.97;5069683;28;20090;-91
2023/10/24 04:15:42;;;;;;;14.23;10.20;;;;;;;11.23;100.00;100039.75;5066437;28;20028;-91
2023/10/24 04:18:07;;;;;;;13.43;9.57;;;;;;;11.17;100.00;100037.38;5065714;28;20115;-91
2023/10/24 04:20:32;;;;;;;12.55;8.60;;;;;;;11.17;100.00;100026.16;5066318;28;20548;-91
2023/10/24 04:23:02;;;;;;;16.70;10.45;;;;;;;11.16;100.00;100029.34;5064118;28;20035;-91
2023/10/24 04:25:30;;;;;;;14.60;9.65;;;;;;;11.14;100.00;100018.53;5071124;28;20559;-91
2023/10/24 04:27:57;;;;;;;15.18;9.60;;;;;;;11.20;100.00;100030.16;5068074;28;20405;-92
2023/10/24 04:30:26;;;;;;;13.32;8.45;;;;;;;11.08;100.00;100011.75;5071073;28;20028;-92
2023/10/24 04:32:51;;;;;;;13.80;9.05;;;;;;;11.06;100.00;100005.75;5065893;28;20060;-91
2023/10/24 04:35:17;;;;;;;15.95;8.43;;;;;;;11.26;100.00;100041.72;5064829;28;20063;-91
2023/10/24 04:37:42;;;;;;;13.18;8.90;;;;;;;11.21;100.00;100036.53;5064745;28;20021;-91
2023/10/24 04:40:08;;;;;;;11.82;7.75;;;;;;;11.19;100.00;100031.34;5064946;28;20078;-90
2023/10/24 04:42:33;;;;;;;13.07;7.82;;;;;;;11.12;100.00;100023.75;5067054;28;20549;-91
2023/10/24 04:44:58;;;;;;;11.27;7.50;;;;;;;10.97;100.00;100006.16;5065576;28;20024;-91
2023/10/24 04:47:25;;;;;;;10.93;7.28;;;;;;;11.17;100.00;100042.13;5063414;28;20058;-91
2023/10/24 04:49:52;;;;;;;10.43;7.53;;;;;;;11.07;100.00;100026.97;5068783;28;20032;-92
2023/10/24 04:52:17;;;;;;;11.60;6.72;;;;;;;11.07;100.00;100026.97;5060237;28;20037;-90
2023/10/24 04:54:42;;;;;;;13.40;6.88;;;;;;;11.01;100.00;100006.16;5060977;28;20086;-90
2023/10/24 04:57:08;;;;;;;11.18;6.82;;;;;;;11.06;100.00;100007.75;5065548;28;20036;-90
2023/10/24 04:59:33;;;;;;;12.13;6.40;;;;;;;10.99;100.00;99998.16;5066938;28;20025;-91
2023/10/24 05:01:59;;;;;;;11.77;6.20;;;;;;;11.10;100.00;100014.16;5060060;28;20065;-91
2023/10/24 05:04:24;;;;;;;9.07;5.70;;;;;;;11.06;100.00;100005.75;5062469;28;20064;-90
2023/10/24 05:06:50;;;;;;;9.07;5.95;;;;;;;10.93;100.00;99993.38;5058433;28;20024;-90
2023/10/24 05:09:16;;;;;;;10.82;5.45;;;;;;;11.00;100.00;100007.34;5063218;28;20036;-91
2023/10/24 05:11:44;;;;;;;8.40;5.45;;;;;;;11.08;100.00;100016.56;5061332;28;20173;-91
2023/10/24 05:14:10;;;;;;;8.43;5.68;;;;;;;10.89;100.00;99981.38;5063808;28;20028;-91
2023/10/24 05:16:35;;;;;;;11.38;5.32;;;;;;;11.01;100.00;99997.78;5061672;28;20047;-91
2023/10/24 05:19:00;;;;;;;9.65;5.20;;;;;;;10.99;100.00;100003.78;5063195;28;20470;-91
2023/10/24 05:21:26;;;;;;;9.88;5.90;;;;;;;10.96;100.00;99998.16;5067478;28;20065;-91
2023/10/24 05:23:51;;;;;;;9.85;5.45;;;;;;;10.97;100.00;99982.97;5064721;28;20050;-92
2023/10/24 05:26:17;;;;;;;7.13;4.93;;;;;;;10.98;100.00;99987.34;5047365;28;20039;-91
2023/10/24 05:28:42;;;;;;;8.43;5.38;;;;;;;10.95;100.00;99980.56;5068877;28;20036;-92
2023/10/24 05:31:09;;;;;;;9.07;4.68;;;;;;;11.03;100.00;99998.16;5063191;28;20020;-91
2023/10/24 05:33:36;;;;;;;9.15;5.15;;;;;;;11.03;100.00;99984.16;5066543;28;20036;-91
2023/10/24 05:36:02;;;;;;;10.00;5.43;;;;;;;10.87;100.00;99972.59;5061593;28;20025;-91
2023/10/24 05:38:27;;;;;;;7.57;4.70;;;;;;;10.94;100.00;99966.97;5067956;28;20484;-91
2023/10/24 05:40:53;;;;;;;10.07;5.93;;;;;;;10.96;100.00;99978.56;5060917;28;20021;-92
2023/10/24 05:43:18;;;;;;;10.45;5.55;;;;;;;11.08;100.00;99989.34;5063938;28;20497;-92
2023/10/24 05:45:43;;;;;;;7.93;5.13;;;;;;;10.94;100.00;99973.38;5055829;28;20025;-91
2023/10/24 05:48:09;;;;;;;8.05;5.43;;;;;;;11.03;100.00;99992.56;5059278;28;20025;-92
2023/10/24 05:50:36;;;;;;;12.60;5.43;;;;;;;11.02;100.00;99999.34;5069567;28;20028;-92
2023/10/24 05:53:02;;;;;;;6.95;4.47;;;;;;;10.96;100.00;99998.16;5061035;28;20029;-92
2023/10/24 05:55:27;;;;;;;7.72;5.07;;;;;;;10.82;100.00;99975.81;5049551;28;20036;-91
2023/10/24 05:57:53;;;;;;;8.05;5.43;;;;;;;10.85;100.00;99989.00;5050075;28;20040;-92
2023/10/24 06:00:18;;;;;;;9.02;5.50;;;;;;;10.89;100.00;99992.59;5063772;28;20092;-92
2023/10/24 06:02:44;;;;;;;9.25;5.85;;;;;;;10.86;100.00;99991.41;5063500;28;20021;-92
2023/10/24 06:05:09;;;;;;;7.78;5.43;;;;;;;10.78;100.00;99973.78;5068075;28;20031;-92
2023/10/24 06:07:35;;;;;;;7.03;5.18;;;;;;;10.92;100.00;99988.97;5064078;28;20024;-91
2023/10/24 06:10:00;;;;;;;9.05;5.97;;;;;;;10.85;100.00;99980.59;5066640;28;20509;-91
2023/10/24 06:12:28;;;;;;;9.70;6.15;;;;;;;10.83;100.00;99971.78;5068270;28;20027;-91
2023/10/24 06:14:54;;;;;;;9.82;5.50;;;;;;;10.78;100.00;99959.81;5049242;28;20047;-92
2023/10/24 06:17:20;;;;;;;9.10;5.85;;;;;;;10.84;100.00;99984.59;5070890;28;20019;-91
2023/10/24 06:19:51;;;;;;;8.38;5.28;;;;;;;10.75;100.00;99971.00;5063391;28;20107;-93
2023/10/24 06:22:17;;;;;;;11.13;5.93;;;;;;;10.88;100.00;99996.56;5068867;28;20050;-92
2023/10/24 06:25:03;;;;;;;9.07;5.78;;;;;;;10.98;100.00;100006.97;5068887;28;20024;-92
2023/10/24 06:27:28;;;;;;;10.15;5.65;;;;;;;10.78;100.00;99979.41;5064588;28;20639;-88
2023/10/24 06:29:57;;;;;;;11.55;6.00;;;;;;;10.83;100.00;99985.78;5063519;28;20044;-89
2023/10/24 06:32:22;;;;;;;12.52;7.00;;;;;;;10.78;100.00;99981.41;5069117;28;20020;-90
2023/10/24 06:34:47;;;;;;;10.98;5.45;;;;;;;10.94;100.00;100018.19;5070344;28;20397;-90
2023/10/24 06:37:13;;;;;;;10.38;5.85;;;;;;;10.88;100.00;100021.75;5071263;28;20028;-90
2023/10/24 06:39:38;;;;;;;14.90;6.45;;;;;;;10.78;100.00;100007.38;5072432;28;20058;-91
2023/10/24 06:42:04;;;;;;;11.32;6.95;;;;;;;10.88;100.00;100013.38;5066613;28;20100;-90
2023/10/24 06:44:30;;;;;;;10.00;6.63;;;;;;;10.93;100.00;100024.97;5065156;28;20024;-89
2023/10/24 06:46:57;;;;;;;11.15;7.22;;;;;;;10.82;100.00;100012.19;5060797;28;20034;-91
2023/10/24 06:49:22;;;;;;;13.48;7.10;;;;;;;10.75;100.00;100005.41;5062367;28;20077;-90
2023/10/24 06:51:48;;;;;;;11.90;7.18;;;;;;;10.90;100.00;100005.38;5066277;28;20032;-91
2023/10/24 06:54:14;;;;;;;13.85;6.95;;;;;;;10.90;100.00;100022.16;5068293;28;20542;-92
2023/10/24 06:56:39;;;;;;;10.30;6.07;;;;;;;10.76;100.00;100004.19;5067742;28;20539;-92
2023/10/24 06:59:05;;;;;;;10.90;6.07;;;;;;;10.86;100.00;99999.78;5059991;28;20052;-90
2023/10/24 07:01:30;;;;;;;11.63;5.93;;;;;;;10.81;100.00;100005.78;5083687;28;20405;-90
2023/10/24 07:03:56;;;;;;;12.75;7.63;;;;;;;10.91;100.00;100027.38;5064090;28;20493;-90
2023/10/24 07:06:27;;;;;;;13.35;7.85;;;;;;;10.92;100.00;100025.38;5069882;28;20190;-89
2023/10/24 07:09:10;;;;;;;12.98;6.95;;;;;;;10.81;100.00;99996.59;5070136;28;20025;-92
2023/10/24 07:11:36;;;;;;;11.82;7.55;;;;;;;10.74;100.00;99995.38;5070268;28;20035;-90
2023/10/24 07:14:42;;;;;;;14.93;7.97;;;;;;;10.88;100.00;100027.38;5071236;28;20021;-91
2023/10/24 07:17:24;;;;;;;11.02;6.65;;;;;;;10.95;100.00;100030.97;5068621;28;20050;-90
2023/10/24 07:20:10;;;;;;;15.70;8.30;;;;;;;10.75;100.00;99999.81;5072663;28;20076;-91
2023/10/24 07:23:14;;;;;;;15.55;8.45;;;;;;;10.83;100.00;100005.38;5073764;28;20036;-90
2023/10/24 07:25:58;;;;;;;12.07;8.05;;;;;;;10.91;100.00;100026.56;5032404;28;20486;-90
2023/10/24 07:28:23;;;;;;;13.32;7.68;;;;;;;10.85;100.00;100014.97;5061718;28;20059;-91
2023/10/24 07:30:54;;;;;;;13.20;7.85;;;;;;;10.89;100.00;100015.78;5070196;28;20483;-91
2023/10/24 07:34:04;;;;;;;12.93;7.75;;;;;;;10.75;100.00;99996.19;5069035;28;20039;-91
2023/10/24 07:36:32;;;;;;;13.07;7.97;;;;;;;10.94;100.00;100025.75;5063798;28;20037;-90
2023/10/24 07:39:58;;;;;;;16.60;8.13;;;;;;;10.96;100.00;100012.16;5071835;28;20040;-91
2023/10/24 07:42:36;;;;;;;15.50;7.43;;;;;;;10.90;100.00;100002.56;5071226;28;20111;-92
2023/10/24 07:45:13;;;;;;;13.18;7.38;;;;;;;10.75;100.00;99997.00;5068425;28;20041;-90
2023/10/24 07:47:39;;;;;;;13.40;8.00;;;;;;;10.99;100.00;100030.97;5066269;28;20089;-92
2023/10/24 07:50:33;;;;;;;13.57;7.50;;;;;;;11.01;100.00;100022.97;5069021;28;20020;-90
2023/10/24 07:52:59;;;;;;;12.55;7.20;;;;;;;10.86;100.00;100005.41;5068613;28;20109;-91
2023/10/24 07:55:24;;;;;;;16.80;8.93;;;;;;;10.86;100.00;100005.41;5074268;28;20111;-90
2023/10/24 07:57:58;;;;;;;14.40;8.52;;;;;;;10.84;100.00;99990.19;5072499;28;20442;-90
2023/10/24 08:00:23;;;;;;;14.60;7.88;;;;;;;10.96;100.00;100012.16;5069145;28;20474;-89
2023/10/24 08:03:11;;;;;;;13.75;7.68;;;;;;;10.90;100.00;100002.56;5071821;28;20064;-90
2023/10/24 08:05:47;;;;;;;15.23;8.15;;;;;;;10.77;100.00;99982.59;5070231;28;20044;-90
2023/10/24 08:08:20;;;;;;;15.90;7.97;;;;;;;10.85;100.00;99986.97;5068810;28;20046;-90
2023/10/24 08:10:57;;;;;;;14.70;7.97;;;;;;;10.90;100.00;99991.38;5090420;28;20353;-92
2023/10/24 08:13:22;;;;;;;15.55;7.82;;;;;;;10.95;100.00;99994.56;5072517;28;20055;-90
2023/10/24 08:19:41;;;;;;;13.73;7.03;;;;;;;10.98;100.00;99981.75;5053353;28;20024;-91
2023/10/24 08:22:17;;;;;;;13.88;6.70;;;;;;;10.86;100.00;99954.22;5075605;28;20043;-90
2023/10/24 08:25:06;;;;;;;11.52;8.13;;;;;;;11.06;100.00;99988.16;5068128;28;21862;-92
2023/10/24 08:27:32;;;;;;;10.70;6.82;;;;;;;10.88;100.00;99963.78;5070570;28;20036;-90
2023/10/24 08:30:00;;;;;;;13.40;7.55;;;;;;;10.78;100.00;99962.59;5069858;28;20039;-91
2023/10/24 08:32:25;;;;;;;13.63;7.80;;;;;;;10.86;100.00;99959.81;5068762;28;20039;-90
2023/10/24 08:34:54;;;;;;;13.15;7.68;;;;;;;10.90;100.00;99943.78;5073058;28;20024;-90
2023/10/24 08:37:19;;;;;;;15.80;6.95;;;;;;;10.97;100.00;99932.56;5088129;28;20040;-90
2023/10/24 08:40:00;;;;;;;13.32;7.63;;;;;;;10.92;100.00;99936.59;5075265;28;20032;-90
2023/10/24 08:42:38;;;;;;;11.07;6.80;;;;;;;11.16;100.00;99992.94;5070785;28;20481;-90
2023/10/24 08:45:32;;;;;;;13.45;7.18;;;;;;;11.15;100.00;99997.75;5072573;28;20135;-91
2023/10/24 08:48:00;;;;;;;12.90;7.90;;;;;;;10.98;100.00;99953.75;5065200;28;20036;-91
2023/10/24 08:50:26;;;;;;;12.75;6.95;;;;;;;11.17;100.00;99986.94;5067188;28;20039;-92
2023/10/24 08:52:51;;;;;;;12.80;7.82;;;;;;;11.03;100.00;99969.38;5067659;28;20028;-91
2023/10/24 08:55:18;;;;;;;12.32;6.85;;;;;;;11.12;100.00;99983.75;5082517;28;20047;-90
2023/10/24 08:57:45;;;;;;;10.48;6.35;;;;;;;11.08;100.00;99983.75;5071842;28;20074;-92
2023/10/24 09:00:16;;;;;;;13.75;6.95;;;;;;;11.09;100.00;99990.97;5069488;28;20501;-90
2023/10/24 09:02:42;;;;;;;13.55;7.05;;;;;;;11.13;100.00;99994.56;5070730;28;20036;-92
2023/10/24 09:05:27;;;;;;;13.13;7.28;;;;;;;11.06;100.00;99988.94;5055366;28;20138;-91
2023/10/24 09:07:53;;;;;;;12.95;7.50;;;;;;;11.19;100.00;100028.53;5056526;28;20040;-91
2023/10/24 09:10:24;;;;;;;9.93;6.57;;;;;;;11.02;100.00;100002.16;5053646;28;20041;-90
2023/10/24 09:13:13;;;;;;;12.07;6.97;;;;;;;10.99;100.00;99995.38;5052052;28;20033;-92
2023/10/24 09:16:09;;;;;;;10.30;5.90;;;;;;;11.07;100.00;99992.53;5050548;28;20029;-91
2023/10/24 09:19:07;;;;;;;11.90;7.15;;;;;;;11.17;100.00;100008.53;5052419;28;20091;-89
2023/10/24 09:21:32;;;;;;;12.55;6.88;;;;;;;11.25;100.00;100024.13;5040333;28;20211;-90
2023/10/24 09:24:36;;;;;;;14.95;7.85;;;;;;;11.04;100.00;99996.16;5052139;28;20025;-89
2023/10/24 09:27:48;;;;;;;12.35;7.68;;;;;;;11.22;100.00;100032.56;5032021;28;20049;-90
2023/10/24 09:30:30;;;;;;;;;;;;;;;;;;;;;
2023/10/24 09:32:56;;;;;;;14.68;7.80;;;;;;;11.01;100.00;99992.16;4992310;28;20034;-91
2023/10/24 09:35:21;;;;;;;13.93;7.65;;;;;;;11.07;100.00;100004.56;5036501;28;20140;-90
2023/10/24 09:38:07;;;;;;;14.30;8.48;;;;;;;11.26;100.00;100030.53;5048593;28;20033;-91
2023/10/24 09:40:39;;;;;;;15.70;9.10;;;;;;;11.10;100.00;99998.16;5056498;28;20044;-90
2023/10/24 09:43:32;;;;;;;15.30;8.50;;;;;;;11.36;100.00;100005.31;5045405;28;20033;-90
2023/10/24 09:46:00;;;;;;;19.52;9.75;;;;;;;11.34;100.00;99990.06;5043453;28;20033;-90
2023/10/24 09:48:56;;;;;;;13.45;8.43;;;;;;;11.49;100.00;100014.06;5062869;28;20057;-92
2023/10/24 09:51:47;;;;;;;11.65;7.93;;;;;;;11.35;100.00;99991.69;5039990;28;20029;-90
2023/10/24 09:54:49;;;;;;;;;;;;;;;;;;;;;
2023/10/24 09:57:20;;;;;;;16.63;9.43;;;;;;;11.57;100.00;99990.41;5066372;22;20052;-74
2023/10/24 09:59:47;;;;;;;12.55;8.32;;;;;;;11.57;100.00;99987.63;5073321;28;20028;-74
2023/10/24 10:02:19;;;;;;;16.13;8.23;;;;;;;11.60;100.00;99997.22;5055690;28;20024;-74
2023/10/24 10:04:46;;;;;;;18.83;9.50;;;;;;;11.66;100.00;99995.59;5075948;28;20477;-73
2023/10/24 10:07:14;;;;;;;14.95;8.55;;;;;;;11.64;100.00;99991.56;5073607;28;20036;-74
2023/10/24 10:09:42;;;;;;;17.83;9.23;;;;;;;11.65;100.00;99996.00;5071700;28;20028;-75
2023/10/24 10:12:12;;;;;;;14.77;9.20;;;;;;;11.64;100.00;99992.38;5075544;28;20047;-75
2023/10/24 10:15:12;;;;;;;17.60;9.88;;;;;;;11.68;100.00;100003.56;5054502;28;20028;-75
2023/10/24 10:18:03;;;;;;;14.02;9.07;;;;;;;11.69;100.00;99996.78;5076445;28;20040;-75
2023/10/24 10:20:45;;;;;;;12.40;8.82;;;;;;;11.74;100.00;99997.16;5081395;28;20050;-75
2023/10/24 10:23:27;;;;;;;12.63;7.43;;;;;;;11.78;100.00;100002.72;5079290;28;20225;-74
2023/10/24 10:26:14;;;;;;;13.82;8.05;;;;;;;11.80;100.00;99994.72;5072361;28;20519;-74
2023/10/24 10:28:46;;;;;;;15.05;8.85;;;;;;;11.86;100.00;99981.88;5073315;28;20051;-74
2023/10/24 10:31:39;;;;;;;15.90;8.85;;;;;;;11.90;100.00;99999.50;5077063;28;20489;-74
2023/10/24 10:34:05;;;;;;;;;;;;;;;11.92;100.00;100005.50;5074664;28;20077;-74
2023/10/24 10:36:31;;;;;;;13.38;7.47;;;;;;;11.95;100.00;100006.69;5075755;28;19916;-75
2023/10/24 10:39:00;;;;;;;12.43;7.53;;;;;;;11.97;100.00;100007.06;5058108;28;20024;-75
2023/10/24 10:41:26;;;;;;;15.20;7.70;;;;;;;11.97;100.00;100018.28;5072530;28;20610;-75
2023/10/24 10:43:59;;;;;;;12.05;6.90;;;;;;;12.00;100.00;100014.69;5059693;28;20035;-74
2023/10/24 10:46:27;;;;;;;12.68;7.47;;;;;;;12.08;100.00;100009.81;5062847;28;20035;-73
2023/10/24 10:48:56;;;;;;;16.73;8.35;;;;;;;12.12;100.00;100002.19;5057516;28;20024;-74
2023/10/24 10:51:28;;;;;;;10.15;7.53;;;;;;;12.18;100.00;99995.75;5059351;28;20040;-73
2023/10/24 10:54:09;;;;;;;12.25;6.80;;;;;;;12.28;100.00;100005.28;5076115;28;20035;-72
2023/10/24 10:56:37;;;;;;;13.00;6.75;;;;;;;12.35;100.00;100001.63;5075903;28;20397;-75
2023/10/24 10:59:11;;;;;;;11.90;7.35;;;;;;;12.30;100.00;99994.44;5070297;28;20020;-73
2023/10/24 11:02:05;;;;;;;9.27;6.88;;;;;;;12.25;100.00;99992.09;5078182;28;20036;-74
2023/10/24 11:04:30;;;;;;;9.40;5.43;;;;;;;12.16;100.00;99989.75;5074904;28;20162;-73
2023/10/24 11:06:57;;;;;;;10.40;7.05;;;;;;;12.22;100.00;99995.72;5075498;28;20107;-73
2023/10/24 11:09:30;;;;;;;9.98;6.63;;;;;;;12.23;100.00;99983.28;5067587;28;20047;-74
2023/10/24 11:12:19;;;;;;;11.30;6.60;;;;;;;12.28;100.00;99991.25;5072831;28;20024;-74
2023/10/24 11:14:44;;;;;;;10.27;6.85;;;;;;;12.27;100.00;99978.44;5064100;28;20036;-74
2023/10/24 11:17:11;;;;;;;9.50;6.28;;;;;;;12.33;100.00;99988.03;5071060;28;20039;-75
2023/10/24 11:19:38;;;;;;;9.80;5.95;;;;;;;12.34;100.00;99984.00;5079514;28;20381;-73
2023/10/24 11:22:03;;;;;;;9.10;6.93;;;;;;;12.36;100.00;99981.59;5077242;28;20025;-74
2023/10/24 11:24:29;;;;;;;9.27;5.72;;;;;;;12.36;100.00;99990.00;5072882;28;20031;-73
2023/10/24 11:27:04;;;;;;;8.40;5.95;;;;;;;12.34;100.00;99984.00;5052035;28;20385;-74
2023/10/24 11:29:30;;;;;;;8.52;6.10;;;;;;;12.38;100.00;99990.38;5054573;28;20086;-74